createdAt,value
2022-08-31T00:00:58.320Z,19.38
2022-08-31T00:01:58.300Z,19.38
2022-08-31T00:02:58.257Z,19.35
2022-08-31T00:03:58.243Z,19.35
2022-08-31T00:04:58.277Z,19.39
2022-08-31T00:05:58.227Z,19.38
2022-08-31T00:06:58.210Z,19.36
2022-08-31T00:07:58.199Z,19.38
2022-08-31T00:08:58.187Z,19.39
2022-08-31T00:09:58.177Z,19.40
2022-08-31T00:10:58.176Z,19.40
2022-08-31T00:11:58.152Z,19.36
2022-08-31T00:12:58.143Z,19.38
2022-08-31T00:13:58.133Z,19.38
2022-08-31T00:14:58.118Z,19.38
2022-08-31T00:15:58.110Z,19.35
2022-08-31T00:16:58.153Z,19.35
2022-08-31T00:17:58.089Z,19.36
2022-08-31T00:18:58.080Z,19.38
2022-08-31T00:19:58.063Z,19.38
2022-08-31T00:20:58.051Z,19.35
2022-08-31T00:21:58.041Z,19.33
2022-08-31T00:22:58.032Z,19.33
2022-08-31T00:23:58.019Z,19.35
2022-08-31T00:24:58.007Z,19.33
2022-08-31T00:25:57.997Z,19.33
2022-08-31T00:26:57.985Z,19.39
2022-08-31T00:27:57.974Z,19.31
2022-08-31T00:28:57.961Z,19.32
2022-08-31T00:29:57.950Z,19.35
2022-08-31T00:30:57.939Z,19.33
2022-08-31T00:31:57.969Z,19.32
2022-08-31T00:32:58.463Z,19.32
2022-08-31T00:33:57.907Z,19.36
2022-08-31T00:34:57.894Z,19.38
2022-08-31T00:35:57.882Z,19.32
2022-08-31T00:36:57.873Z,19.35
2022-08-31T00:37:57.861Z,19.33
2022-08-31T00:38:57.853Z,19.31
2022-08-31T00:39:57.840Z,19.32
2022-08-31T00:40:57.827Z,19.29
2022-08-31T00:41:57.817Z,19.35
2022-08-31T00:42:57.806Z,19.28
2022-08-31T00:43:57.793Z,19.31
2022-08-31T00:44:57.783Z,19.36
2022-08-31T00:45:57.921Z,19.29
2022-08-31T00:46:57.761Z,19.31
2022-08-31T00:47:57.750Z,19.31
2022-08-31T00:48:57.738Z,19.31
2022-08-31T00:49:57.727Z,19.25
2022-08-31T00:50:57.721Z,19.31
2022-08-31T00:51:57.703Z,19.25
2022-08-31T00:52:57.693Z,19.31
2022-08-31T00:53:57.684Z,19.31
2022-08-31T00:54:57.669Z,19.28
2022-08-31T00:55:57.659Z,19.31
2022-08-31T00:56:57.647Z,19.33
2022-08-31T00:57:57.637Z,19.31
2022-08-31T00:58:57.624Z,19.20
2022-08-31T00:59:57.614Z,19.33
2022-08-31T01:00:57.622Z,19.29
2022-08-31T01:01:57.645Z,19.32
2022-08-31T01:02:57.581Z,19.31
2022-08-31T01:03:57.570Z,19.28
2022-08-31T01:04:57.558Z,19.32
2022-08-31T01:05:57.546Z,19.25
2022-08-31T01:06:57.534Z,19.31
2022-08-31T01:07:57.526Z,19.33
2022-08-31T01:08:57.515Z,19.33
2022-08-31T01:09:57.505Z,19.32
2022-08-31T01:10:57.503Z,19.33
2022-08-31T01:11:57.535Z,19.36
2022-08-31T01:12:57.469Z,19.25
2022-08-31T01:13:57.459Z,19.33
2022-08-31T01:14:57.446Z,19.31
2022-08-31T01:15:57.498Z,19.31
2022-08-31T01:16:57.425Z,19.28
2022-08-31T01:17:57.411Z,19.28
2022-08-31T01:18:57.400Z,19.33
2022-08-31T01:19:57.395Z,19.28
2022-08-31T01:20:57.385Z,19.28
2022-08-31T01:21:57.372Z,19.28
2022-08-31T01:22:57.355Z,19.35
2022-08-31T01:23:57.343Z,19.35
2022-08-31T01:24:57.332Z,19.29
2022-08-31T01:25:57.323Z,19.36
2022-08-31T01:26:57.312Z,19.35
2022-08-31T01:27:57.300Z,19.33
2022-08-31T01:28:57.345Z,19.35
2022-08-31T01:29:57.277Z,19.38
2022-08-31T01:30:57.269Z,19.36
2022-08-31T01:31:57.292Z,19.39
2022-08-31T01:32:57.245Z,19.36
2022-08-31T01:33:57.437Z,19.39
2022-08-31T01:34:57.225Z,19.39
2022-08-31T01:35:57.212Z,19.35
2022-08-31T01:36:57.202Z,19.40
2022-08-31T01:37:57.190Z,19.39
2022-08-31T01:38:57.177Z,19.39
2022-08-31T01:39:57.168Z,19.38
2022-08-31T01:40:57.157Z,19.40
2022-08-31T01:41:57.147Z,19.39
2022-08-31T01:42:57.146Z,19.35
2022-08-31T01:43:57.122Z,19.40
2022-08-31T01:44:57.109Z,19.40
2022-08-31T01:45:57.098Z,19.38
2022-08-31T01:46:57.158Z,19.46
2022-08-31T01:47:57.076Z,19.38
2022-08-31T01:48:57.064Z,19.40
2022-08-31T01:49:57.482Z,19.42
2022-08-31T01:50:57.041Z,19.42
2022-08-31T01:51:57.036Z,19.48
2022-08-31T01:52:57.021Z,19.42
2022-08-31T01:53:57.011Z,19.48
2022-08-31T01:54:56.998Z,19.46
2022-08-31T01:55:56.987Z,19.39
2022-08-31T01:56:56.979Z,19.42
2022-08-31T01:57:56.963Z,19.42
2022-08-31T01:58:56.951Z,19.47
2022-08-31T01:59:56.941Z,19.43
2022-08-31T02:00:56.999Z,19.48
2022-08-31T02:01:57.056Z,19.50
2022-08-31T02:02:56.913Z,19.46
2022-08-31T02:03:57.250Z,19.48
2022-08-31T02:04:56.887Z,19.42
2022-08-31T02:06:17.880Z,19.54
2022-08-31T02:06:56.863Z,19.50
2022-08-31T02:07:56.855Z,19.50
2022-08-31T02:08:56.841Z,19.58
2022-08-31T02:09:56.881Z,19.47
2022-08-31T02:10:56.818Z,19.48
2022-08-31T02:11:56.808Z,19.46
2022-08-31T02:12:56.795Z,19.47
2022-08-31T02:13:56.784Z,19.47
2022-08-31T02:14:56.776Z,19.48
2022-08-31T02:15:56.851Z,19.57
2022-08-31T02:16:56.751Z,19.48
2022-08-31T02:17:56.749Z,19.48
2022-08-31T02:18:56.729Z,19.58
2022-08-31T02:19:56.717Z,19.55
2022-08-31T02:20:56.707Z,19.51
2022-08-31T02:21:56.696Z,19.48
2022-08-31T02:22:56.684Z,19.57
2022-08-31T02:23:56.672Z,19.58
2022-08-31T02:24:56.664Z,19.53
2022-08-31T02:25:56.653Z,19.47
2022-08-31T02:26:56.640Z,19.47
2022-08-31T02:27:56.627Z,19.47
2022-08-31T02:28:56.617Z,19.48
2022-08-31T02:29:56.607Z,19.48
2022-08-31T02:30:56.626Z,19.50
2022-08-31T02:31:56.587Z,19.60
2022-08-31T02:32:56.572Z,19.53
2022-08-31T02:33:56.563Z,19.55
2022-08-31T02:34:56.550Z,19.55
2022-08-31T02:35:56.538Z,19.57
2022-08-31T02:36:56.528Z,19.53
2022-08-31T02:37:56.523Z,19.50
2022-08-31T02:38:56.505Z,19.51
2022-08-31T02:39:56.494Z,19.57
2022-08-31T02:40:56.482Z,19.57
2022-08-31T02:41:56.470Z,19.57
2022-08-31T02:42:56.459Z,19.60
2022-08-31T02:43:56.448Z,19.53
2022-08-31T02:44:56.439Z,19.55
2022-08-31T02:45:56.480Z,19.60
2022-08-31T02:46:56.415Z,19.58
2022-08-31T02:47:56.406Z,19.55
2022-08-31T02:48:56.392Z,19.55
2022-08-31T02:49:56.382Z,19.60
2022-08-31T02:50:56.369Z,19.60
2022-08-31T02:51:56.360Z,19.55
2022-08-31T02:52:56.349Z,19.55
2022-08-31T02:53:56.337Z,19.54
2022-08-31T02:54:56.325Z,19.61
2022-08-31T02:55:56.314Z,19.55
2022-08-31T02:56:56.303Z,19.63
2022-08-31T02:57:56.297Z,19.57
2022-08-31T02:58:56.282Z,19.51
2022-08-31T02:59:56.275Z,19.61
2022-08-31T03:00:56.259Z,19.60
2022-08-31T03:01:56.444Z,19.63
2022-08-31T03:02:56.313Z,19.57
2022-08-31T03:03:56.226Z,19.58
2022-08-31T03:04:56.214Z,19.54
2022-08-31T03:05:56.204Z,19.63
2022-08-31T03:06:56.190Z,19.55
2022-08-31T03:07:56.181Z,19.63
2022-08-31T03:08:56.168Z,19.63
2022-08-31T03:09:56.159Z,19.58
2022-08-31T03:10:56.154Z,19.57
2022-08-31T03:11:56.136Z,19.58
2022-08-31T03:12:56.125Z,19.55
2022-08-31T03:13:58.760Z,19.54
2022-08-31T03:14:56.102Z,19.50
2022-08-31T03:15:56.135Z,19.58
2022-08-31T03:16:56.082Z,19.61
2022-08-31T03:17:56.070Z,19.60
2022-08-31T03:18:56.056Z,19.60
2022-08-31T03:19:56.047Z,19.51
2022-08-31T03:20:56.036Z,19.58
2022-08-31T03:21:56.436Z,19.61
2022-08-31T03:22:56.015Z,19.60
2022-08-31T03:23:56.001Z,19.60
2022-08-31T03:24:55.991Z,19.60
2022-08-31T03:25:55.982Z,19.48
2022-08-31T03:26:55.969Z,19.60
2022-08-31T03:27:56.537Z,19.60
2022-08-31T03:28:55.949Z,19.55
2022-08-31T03:29:55.941Z,19.55
2022-08-31T03:30:55.957Z,19.48
2022-08-31T03:31:55.913Z,19.57
2022-08-31T03:33:02.545Z,19.57
2022-08-31T03:33:55.893Z,19.50
2022-08-31T03:34:55.881Z,19.55
2022-08-31T03:35:55.868Z,19.50
2022-08-31T03:36:55.858Z,19.50
2022-08-31T03:37:55.847Z,19.60
2022-08-31T03:38:55.834Z,19.48
2022-08-31T03:39:55.827Z,19.57
2022-08-31T03:40:55.814Z,19.57
2022-08-31T03:41:55.802Z,19.53
2022-08-31T03:42:55.793Z,19.54
2022-08-31T03:43:55.779Z,19.53
2022-08-31T03:44:55.767Z,19.51
2022-08-31T03:45:55.772Z,19.54
2022-08-31T03:46:56.543Z,19.55
2022-08-31T03:47:55.736Z,19.55
2022-08-31T03:48:55.736Z,19.51
2022-08-31T03:49:55.712Z,19.51
2022-08-31T03:50:55.700Z,19.58
2022-08-31T03:51:55.690Z,19.55
2022-08-31T03:52:55.685Z,19.47
2022-08-31T03:53:55.666Z,19.51
2022-08-31T03:54:55.656Z,19.51
2022-08-31T03:55:55.645Z,19.58
2022-08-31T03:56:55.635Z,19.48
2022-08-31T03:57:55.627Z,19.54
2022-08-31T03:58:55.609Z,19.50
2022-08-31T03:59:55.599Z,19.55
2022-08-31T04:00:55.587Z,19.50
2022-08-31T04:01:55.619Z,19.58
2022-08-31T04:02:55.588Z,19.48
2022-08-31T04:03:55.554Z,19.55
2022-08-31T04:04:55.545Z,19.50
2022-08-31T04:05:55.533Z,19.47
2022-08-31T04:06:55.520Z,19.48
2022-08-31T04:07:55.510Z,19.51
2022-08-31T04:08:56.134Z,19.58
2022-08-31T04:09:55.489Z,19.47
2022-08-31T04:10:55.476Z,19.50
2022-08-31T04:11:55.466Z,19.43
2022-08-31T04:12:55.699Z,19.40
2022-08-31T04:13:55.448Z,19.48
2022-08-31T04:14:55.434Z,19.51
2022-08-31T04:15:55.464Z,19.36
2022-08-31T04:16:55.410Z,19.43
2022-08-31T04:17:57.276Z,19.46
2022-08-31T04:18:55.389Z,19.51
2022-08-31T04:19:55.380Z,19.40
2022-08-31T04:20:55.364Z,19.50
2022-08-31T04:21:55.355Z,19.48
2022-08-31T04:22:55.342Z,19.53
2022-08-31T04:23:55.332Z,19.48
2022-08-31T04:24:55.320Z,19.54
2022-08-31T04:25:55.321Z,19.46
2022-08-31T04:26:55.300Z,19.48
2022-08-31T04:27:55.286Z,19.54
2022-08-31T04:28:55.276Z,19.47
2022-08-31T04:29:55.266Z,19.43
2022-08-31T04:30:55.331Z,19.47
2022-08-31T04:31:55.243Z,19.48
2022-08-31T04:32:55.231Z,19.53
2022-08-31T04:33:55.226Z,19.51
2022-08-31T04:34:56.432Z,19.60
2022-08-31T04:35:55.196Z,19.48
2022-08-31T04:36:55.187Z,19.55
2022-08-31T04:37:55.174Z,19.55
2022-08-31T04:38:55.165Z,19.57
2022-08-31T04:39:55.153Z,19.63
2022-08-31T04:40:55.140Z,19.55
2022-08-31T04:41:55.129Z,19.58
2022-08-31T04:42:55.122Z,19.58
2022-08-31T04:43:55.107Z,19.58
2022-08-31T04:44:55.101Z,19.63
2022-08-31T04:45:55.139Z,19.58
2022-08-31T04:46:55.073Z,19.55
2022-08-31T04:47:55.063Z,19.65
2022-08-31T04:48:55.051Z,19.70
2022-08-31T04:49:55.041Z,19.70
2022-08-31T04:50:55.029Z,19.65
2022-08-31T04:51:55.017Z,19.69
2022-08-31T04:53:03.767Z,19.66
2022-08-31T04:53:55.000Z,19.72
2022-08-31T04:54:54.985Z,19.72
2022-08-31T04:55:54.973Z,19.69
2022-08-31T04:56:54.963Z,19.70
2022-08-31T04:57:54.952Z,19.73
2022-08-31T04:58:54.940Z,19.83
2022-08-31T04:59:54.928Z,19.88
2022-08-31T05:00:54.937Z,19.79
2022-08-31T05:01:55.066Z,19.88
2022-08-31T05:02:54.934Z,19.94
2022-08-31T05:03:54.883Z,19.90
2022-08-31T05:04:54.872Z,19.90
2022-08-31T05:05:54.863Z,20.03
2022-08-31T05:06:54.851Z,19.93
2022-08-31T05:07:54.922Z,20.12
2022-08-31T05:08:54.829Z,20.00
2022-08-31T05:09:54.819Z,20.10
2022-08-31T05:10:54.807Z,20.12
2022-08-31T05:11:54.797Z,20.18
2022-08-31T05:12:54.784Z,20.16
2022-08-31T05:13:54.773Z,20.21
2022-08-31T05:14:54.764Z,20.28
2022-08-31T05:15:55.117Z,20.24
2022-08-31T05:16:54.742Z,20.30
2022-08-31T05:17:54.730Z,20.31
2022-08-31T05:18:54.717Z,20.42
2022-08-31T05:19:54.706Z,20.30
2022-08-31T05:20:54.706Z,20.35
2022-08-31T05:21:54.684Z,20.41
2022-08-31T05:22:54.690Z,20.41
2022-08-31T05:23:54.663Z,20.34
2022-08-31T05:24:54.652Z,20.58
2022-08-31T05:25:54.641Z,20.50
2022-08-31T05:26:54.627Z,20.51
2022-08-31T05:27:54.618Z,20.43
2022-08-31T05:28:54.605Z,20.61
2022-08-31T05:29:54.595Z,20.53
2022-08-31T05:30:54.752Z,20.65
2022-08-31T05:31:54.572Z,20.61
2022-08-31T05:32:54.561Z,20.68
2022-08-31T05:33:54.555Z,20.65
2022-08-31T05:34:54.552Z,20.65
2022-08-31T05:35:54.529Z,20.62
2022-08-31T05:36:54.520Z,20.69
2022-08-31T05:37:54.508Z,20.62
2022-08-31T05:38:58.874Z,20.64
2022-08-31T05:39:54.484Z,20.65
2022-08-31T05:40:54.474Z,20.65
2022-08-31T05:41:54.465Z,20.65
2022-08-31T05:42:54.453Z,20.68
2022-08-31T05:43:54.441Z,20.76
2022-08-31T05:44:54.441Z,20.76
2022-08-31T05:45:54.465Z,20.72
2022-08-31T05:46:57.484Z,20.76
2022-08-31T05:47:54.399Z,20.87
2022-08-31T05:48:54.387Z,20.81
2022-08-31T05:49:54.376Z,20.81
2022-08-31T05:50:54.365Z,20.87
2022-08-31T05:51:54.356Z,20.77
2022-08-31T05:52:54.346Z,20.81
2022-08-31T05:53:54.333Z,20.83
2022-08-31T05:54:54.320Z,20.81
2022-08-31T05:55:54.310Z,20.81
2022-08-31T05:56:54.299Z,20.77
2022-08-31T05:57:54.290Z,20.89
2022-08-31T05:58:54.277Z,20.84
2022-08-31T05:59:54.284Z,20.83
2022-08-31T06:00:54.256Z,20.90
2022-08-31T06:01:54.407Z,20.84
2022-08-31T06:02:54.246Z,20.86
2022-08-31T06:03:54.223Z,20.87
2022-08-31T06:04:54.244Z,20.86
2022-08-31T06:05:54.202Z,20.87
2022-08-31T06:06:54.190Z,20.93
2022-08-31T06:07:54.180Z,20.87
2022-08-31T06:08:54.168Z,20.93
2022-08-31T06:09:54.161Z,20.95
2022-08-31T06:10:54.146Z,20.87
2022-08-31T06:11:54.209Z,20.91
2022-08-31T06:12:54.126Z,20.89
2022-08-31T06:13:54.125Z,20.91
2022-08-31T06:14:54.105Z,20.95
2022-08-31T06:15:54.120Z,20.93
2022-08-31T06:16:54.083Z,20.91
2022-08-31T06:17:54.077Z,20.91
2022-08-31T06:18:54.060Z,20.95
2022-08-31T06:19:54.050Z,20.90
2022-08-31T06:20:54.047Z,20.93
2022-08-31T06:21:54.029Z,20.93
2022-08-31T06:22:54.018Z,20.99
2022-08-31T06:23:54.006Z,20.99
2022-08-31T06:24:53.996Z,21.02
2022-08-31T06:25:53.987Z,21.02
2022-08-31T06:26:57.603Z,21.06
2022-08-31T06:27:53.968Z,21.02
2022-08-31T06:28:53.953Z,21.04
2022-08-31T06:29:53.945Z,21.08
2022-08-31T06:30:55.736Z,21.08
2022-08-31T06:31:53.974Z,21.02
2022-08-31T06:32:58.328Z,21.01
2022-08-31T06:33:53.898Z,21.04
2022-08-31T06:34:53.891Z,21.09
2022-08-31T06:35:53.877Z,21.11
2022-08-31T06:36:53.865Z,21.11
2022-08-31T06:37:53.856Z,21.09
2022-08-31T06:38:53.843Z,21.09
2022-08-31T06:39:53.844Z,21.06
2022-08-31T06:40:53.823Z,21.09
2022-08-31T06:41:53.813Z,20.96
2022-08-31T06:42:53.801Z,20.99
2022-08-31T06:43:53.794Z,20.99
2022-08-31T06:44:53.780Z,20.98
2022-08-31T06:45:53.802Z,20.99
2022-08-31T06:46:53.758Z,20.93
2022-08-31T06:47:53.750Z,20.96
2022-08-31T06:48:53.736Z,20.90
2022-08-31T06:49:53.734Z,20.86
2022-08-31T06:50:53.715Z,20.93
2022-08-31T06:51:53.707Z,20.89
2022-08-31T06:52:53.693Z,20.86
2022-08-31T06:53:53.683Z,20.87
2022-08-31T06:54:53.672Z,20.89
2022-08-31T06:55:53.661Z,20.83
2022-08-31T06:56:53.654Z,20.77
2022-08-31T06:57:53.641Z,20.80
2022-08-31T06:58:54.267Z,20.83
2022-08-31T06:59:53.617Z,20.77
2022-08-31T07:00:53.671Z,20.77
2022-08-31T07:01:53.713Z,20.80
2022-08-31T07:02:57.654Z,20.83
2022-08-31T07:03:53.575Z,20.80
2022-08-31T07:04:53.565Z,20.76
2022-08-31T07:05:53.555Z,20.76
2022-08-31T07:06:53.544Z,20.76
2022-08-31T07:07:53.532Z,20.68
2022-08-31T07:08:53.522Z,20.72
2022-08-31T07:09:53.510Z,20.64
2022-08-31T07:10:53.500Z,20.65
2022-08-31T07:11:53.495Z,20.65
2022-08-31T07:12:53.478Z,20.66
2022-08-31T07:13:53.469Z,20.65
2022-08-31T07:14:54.873Z,20.61
2022-08-31T07:15:53.508Z,20.69
2022-08-31T07:16:53.451Z,20.68
2022-08-31T07:17:53.426Z,20.59
2022-08-31T07:18:53.412Z,20.68
2022-08-31T07:19:53.403Z,20.66
2022-08-31T07:20:53.391Z,20.62
2022-08-31T07:21:53.382Z,20.58
2022-08-31T07:22:53.371Z,20.68
2022-08-31T07:23:53.358Z,20.62
2022-08-31T07:24:53.348Z,20.61
2022-08-31T07:25:53.352Z,20.59
2022-08-31T07:26:53.330Z,20.61
2022-08-31T07:27:53.315Z,20.64
2022-08-31T07:28:53.304Z,20.54
2022-08-31T07:29:53.297Z,20.56
2022-08-31T07:30:53.316Z,20.54
2022-08-31T07:31:53.271Z,20.56
2022-08-31T07:32:56.505Z,20.49
2022-08-31T07:33:53.252Z,20.49
2022-08-31T07:34:58.602Z,20.51
2022-08-31T07:35:53.230Z,20.59
2022-08-31T07:36:53.219Z,20.47
2022-08-31T07:37:53.208Z,20.56
2022-08-31T07:38:53.196Z,20.51
2022-08-31T07:39:53.670Z,20.49
2022-08-31T07:40:53.214Z,20.47
2022-08-31T07:41:53.164Z,20.50
2022-08-31T07:42:53.154Z,20.49
2022-08-31T07:43:53.150Z,20.47
2022-08-31T07:44:53.807Z,20.47
2022-08-31T07:45:53.183Z,20.51
2022-08-31T07:46:53.110Z,20.49
2022-08-31T07:47:53.103Z,20.47
2022-08-31T07:48:53.089Z,20.41
2022-08-31T07:49:53.076Z,20.43
2022-08-31T07:50:53.068Z,20.43
2022-08-31T07:51:53.056Z,20.49
2022-08-31T07:52:53.056Z,20.43
2022-08-31T07:53:53.034Z,20.42
2022-08-31T07:54:53.025Z,20.42
2022-08-31T07:55:53.012Z,20.42
2022-08-31T07:56:53.002Z,20.39
2022-08-31T07:57:52.991Z,20.39
2022-08-31T07:58:52.982Z,20.39
2022-08-31T07:59:52.971Z,20.43
2022-08-31T08:00:53.007Z,20.41
2022-08-31T08:01:52.974Z,20.34
2022-08-31T08:02:53.658Z,20.33
2022-08-31T08:03:52.926Z,20.38
2022-08-31T08:04:52.915Z,20.30
2022-08-31T08:05:52.904Z,20.24
2022-08-31T08:06:52.893Z,20.30
2022-08-31T08:07:54.882Z,20.38
2022-08-31T08:09:19.391Z,20.41
2022-08-31T08:09:52.862Z,20.30
2022-08-31T08:10:53.243Z,20.31
2022-08-31T08:11:52.840Z,20.31
2022-08-31T08:12:52.827Z,20.33
2022-08-31T08:13:52.819Z,20.34
2022-08-31T08:14:52.809Z,20.31
2022-08-31T08:15:52.845Z,20.31
2022-08-31T08:16:52.814Z,20.30
2022-08-31T08:17:52.774Z,20.31
2022-08-31T08:18:52.763Z,20.35
2022-08-31T08:19:52.751Z,20.33
2022-08-31T08:20:52.742Z,20.31
2022-08-31T08:21:52.730Z,20.28
2022-08-31T08:22:55.421Z,20.31
2022-08-31T08:23:52.707Z,20.28
2022-08-31T08:24:52.697Z,20.31
2022-08-31T08:25:52.685Z,20.30
2022-08-31T08:26:54.492Z,20.30
2022-08-31T08:27:52.672Z,20.30
2022-08-31T08:28:52.664Z,20.30
2022-08-31T08:29:52.644Z,20.24
2022-08-31T08:30:52.747Z,20.24
2022-08-31T08:31:52.679Z,20.27
2022-08-31T08:32:52.610Z,20.28
2022-08-31T08:33:52.599Z,20.23
2022-08-31T08:34:52.587Z,20.23
2022-08-31T08:35:52.578Z,20.23
2022-08-31T08:36:52.585Z,20.28
2022-08-31T08:37:59.307Z,20.20
2022-08-31T08:38:52.543Z,20.24
2022-08-31T08:39:52.533Z,20.24
2022-08-31T08:40:52.692Z,20.24
2022-08-31T08:41:52.515Z,20.24
2022-08-31T08:42:52.504Z,20.15
2022-08-31T08:43:53.159Z,20.21
2022-08-31T08:44:52.480Z,20.24
2022-08-31T08:45:52.626Z,20.16
2022-08-31T08:46:52.572Z,20.21
2022-08-31T08:47:52.447Z,20.21
2022-08-31T08:48:55.356Z,20.16
2022-08-31T08:49:54.762Z,20.10
2022-08-31T08:50:52.428Z,20.12
2022-08-31T08:51:52.409Z,20.15
2022-08-31T08:52:52.403Z,20.10
2022-08-31T08:53:52.386Z,20.20
2022-08-31T08:54:52.367Z,20.16
2022-08-31T08:55:52.444Z,20.21
2022-08-31T08:56:52.351Z,20.20
2022-08-31T08:57:52.366Z,20.21
2022-08-31T08:58:52.326Z,20.18
2022-08-31T08:59:52.315Z,20.15
2022-08-31T09:00:52.303Z,20.16
2022-08-31T09:01:52.417Z,20.18
2022-08-31T09:02:52.303Z,20.20
2022-08-31T09:03:52.271Z,20.16
2022-08-31T09:04:52.259Z,20.12
2022-08-31T09:05:52.315Z,20.16
2022-08-31T09:06:54.359Z,20.13
2022-08-31T09:07:52.226Z,20.12
2022-08-31T09:08:52.215Z,20.10
2022-08-31T09:09:52.206Z,20.13
2022-08-31T09:10:52.194Z,20.13
2022-08-31T09:11:52.184Z,20.09
2022-08-31T09:12:52.173Z,20.09
2022-08-31T09:13:52.162Z,20.16
2022-08-31T09:14:52.149Z,20.13
2022-08-31T09:15:52.318Z,20.00
2022-08-31T09:16:52.128Z,20.16
2022-08-31T09:17:52.121Z,20.09
2022-08-31T09:18:52.106Z,20.00
2022-08-31T09:19:52.095Z,20.03
2022-08-31T09:20:52.186Z,20.10
2022-08-31T09:21:52.074Z,20.02
2022-08-31T09:22:52.062Z,20.06
2022-08-31T09:23:52.051Z,20.08
2022-08-31T09:24:52.303Z,20.08
2022-08-31T09:25:52.291Z,20.10
2022-08-31T09:26:52.023Z,20.15
2022-08-31T09:27:52.007Z,20.12
2022-08-31T09:28:51.998Z,20.10
2022-08-31T09:29:51.986Z,20.03
2022-08-31T09:30:52.076Z,20.10
2022-08-31T09:31:51.966Z,20.02
2022-08-31T09:32:51.955Z,20.00
2022-08-31T09:33:51.945Z,20.00
2022-08-31T09:34:51.931Z,20.08
2022-08-31T09:35:51.924Z,20.12
2022-08-31T09:36:51.911Z,20.08
2022-08-31T09:37:51.907Z,20.10
2022-08-31T09:38:51.891Z,20.08
2022-08-31T09:39:51.877Z,20.10
2022-08-31T09:40:51.987Z,20.08
2022-08-31T09:41:51.855Z,20.03
2022-08-31T09:42:51.843Z,20.03
2022-08-31T09:43:51.836Z,20.08
2022-08-31T09:44:51.821Z,20.15
2022-08-31T09:45:51.960Z,20.05
2022-08-31T09:46:51.799Z,20.03
2022-08-31T09:47:51.788Z,20.03
2022-08-31T09:48:51.779Z,20.08
2022-08-31T09:49:51.766Z,20.03
2022-08-31T09:50:51.756Z,20.09
2022-08-31T09:51:51.746Z,20.06
2022-08-31T09:52:51.735Z,20.08
2022-08-31T09:53:51.725Z,20.03
2022-08-31T09:54:51.712Z,20.08
2022-08-31T09:55:51.701Z,20.00
2022-08-31T09:56:51.689Z,19.93
2022-08-31T09:57:51.680Z,19.93
2022-08-31T09:58:51.671Z,20.02
2022-08-31T09:59:51.676Z,20.03
2022-08-31T10:00:51.649Z,20.05
2022-08-31T10:01:51.673Z,20.09
2022-08-31T10:02:51.625Z,19.93
2022-08-31T10:03:51.613Z,20.00
2022-08-31T10:04:51.629Z,19.93
2022-08-31T10:05:51.603Z,19.94
2022-08-31T10:06:51.580Z,19.97
2022-08-31T10:07:51.570Z,19.94
2022-08-31T10:08:51.559Z,20.05
2022-08-31T10:09:57.816Z,19.98
2022-08-31T10:10:51.539Z,20.00
2022-08-31T10:11:51.532Z,19.93
2022-08-31T10:12:51.515Z,19.90
2022-08-31T10:13:51.503Z,19.91
2022-08-31T10:14:51.495Z,19.94
2022-08-31T10:15:51.539Z,19.91
2022-08-31T10:16:51.472Z,19.86
2022-08-31T10:17:51.460Z,20.00
2022-08-31T10:18:51.450Z,19.88
2022-08-31T10:19:51.438Z,19.93
2022-08-31T10:20:51.428Z,19.94
2022-08-31T10:21:51.418Z,20.02
2022-08-31T10:22:51.405Z,19.94
2022-08-31T10:23:51.395Z,19.90
2022-08-31T10:24:51.383Z,19.88
2022-08-31T10:25:51.372Z,19.95
2022-08-31T10:26:51.369Z,19.94
2022-08-31T10:27:51.350Z,19.88
2022-08-31T10:28:51.345Z,19.91
2022-08-31T10:29:51.330Z,19.90
2022-08-31T10:30:51.358Z,19.95
2022-08-31T10:31:51.305Z,19.91
2022-08-31T10:32:51.294Z,19.91
2022-08-31T10:33:51.285Z,19.94
2022-08-31T10:34:51.275Z,19.95
2022-08-31T10:35:51.264Z,19.94
2022-08-31T10:36:51.254Z,19.90
2022-08-31T10:37:51.240Z,19.94
2022-08-31T10:38:51.229Z,19.93
2022-08-31T10:39:51.220Z,19.87
2022-08-31T10:40:51.347Z,19.93
2022-08-31T10:41:51.197Z,19.93
2022-08-31T10:42:51.185Z,19.90
2022-08-31T10:43:51.173Z,19.91
2022-08-31T10:44:51.164Z,19.87
2022-08-31T10:45:51.311Z,19.91
2022-08-31T10:46:51.143Z,19.90
2022-08-31T10:47:51.130Z,19.88
2022-08-31T10:48:51.126Z,19.87
2022-08-31T10:49:51.112Z,19.84
2022-08-31T10:50:51.101Z,19.88
2022-08-31T10:51:51.091Z,19.94
2022-08-31T10:52:51.076Z,19.93
2022-08-31T10:53:51.065Z,19.94
2022-08-31T10:54:51.212Z,19.90
2022-08-31T10:55:51.042Z,19.88
2022-08-31T10:56:51.051Z,19.88
2022-08-31T10:57:51.037Z,19.87
2022-08-31T10:58:51.820Z,19.79
2022-08-31T10:59:55.451Z,19.84
2022-08-31T11:00:50.988Z,19.91
2022-08-31T11:01:51.034Z,19.86
2022-08-31T11:02:50.973Z,19.88
2022-08-31T11:03:50.954Z,19.80
2022-08-31T11:04:50.979Z,19.76
2022-08-31T11:05:51.325Z,19.86
2022-08-31T11:06:50.920Z,19.83
2022-08-31T11:07:50.909Z,19.87
2022-08-31T11:08:50.900Z,19.80
2022-08-31T11:09:50.923Z,19.88
2022-08-31T11:10:50.976Z,19.79
2022-08-31T11:11:50.867Z,19.87
2022-08-31T11:12:50.854Z,19.79
2022-08-31T11:13:50.846Z,19.80
2022-08-31T11:14:50.832Z,19.79
2022-08-31T11:15:50.855Z,19.80
2022-08-31T11:16:50.812Z,19.84
2022-08-31T11:17:50.801Z,19.79
2022-08-31T11:18:51.331Z,19.78
2022-08-31T11:19:50.783Z,19.79
2022-08-31T11:20:50.767Z,19.88
2022-08-31T11:21:50.756Z,19.84
2022-08-31T11:22:50.744Z,19.83
2022-08-31T11:23:50.735Z,19.79
2022-08-31T11:24:50.724Z,19.80
2022-08-31T11:25:50.713Z,19.87
2022-08-31T11:26:50.704Z,19.86
2022-08-31T11:27:50.691Z,19.83
2022-08-31T11:28:50.679Z,19.86
2022-08-31T11:29:50.667Z,19.79
2022-08-31T11:30:51.357Z,19.83
2022-08-31T11:31:50.646Z,19.84
2022-08-31T11:32:50.634Z,19.73
2022-08-31T11:34:12.180Z,19.83
2022-08-31T11:34:50.613Z,19.79
2022-08-31T11:35:50.602Z,19.72
2022-08-31T11:36:50.769Z,19.83
2022-08-31T11:37:50.580Z,19.72
2022-08-31T11:38:50.568Z,19.83
2022-08-31T11:39:50.557Z,19.84
2022-08-31T11:40:50.584Z,19.69
2022-08-31T11:41:50.536Z,19.70
2022-08-31T11:42:50.522Z,19.72
2022-08-31T11:43:50.513Z,19.72
2022-08-31T11:44:50.502Z,19.70
2022-08-31T11:45:50.541Z,19.80
2022-08-31T11:46:50.479Z,19.72
2022-08-31T11:47:50.472Z,19.70
2022-08-31T11:48:50.458Z,19.69
2022-08-31T11:49:50.451Z,19.72
2022-08-31T11:50:50.448Z,19.78
2022-08-31T11:51:50.427Z,19.72
2022-08-31T11:52:50.423Z,19.69
2022-08-31T11:53:50.402Z,19.69
2022-08-31T11:54:50.397Z,19.69
2022-08-31T11:55:50.384Z,19.70
2022-08-31T11:56:50.372Z,19.72
2022-08-31T11:57:50.359Z,19.72
2022-08-31T11:58:50.350Z,19.66
2022-08-31T11:59:50.336Z,19.68
2022-08-31T12:00:52.530Z,19.73
2022-08-31T12:01:50.316Z,19.75
2022-08-31T12:02:50.376Z,19.72
2022-08-31T12:03:50.293Z,19.72
2022-08-31T12:04:50.322Z,19.68
2022-08-31T12:05:50.270Z,19.68
2022-08-31T12:06:50.264Z,19.73
2022-08-31T12:07:50.254Z,19.69
2022-08-31T12:08:50.261Z,19.70
2022-08-31T12:09:50.240Z,19.73
2022-08-31T12:10:50.225Z,19.70
2022-08-31T12:11:50.207Z,19.69
2022-08-31T12:12:50.193Z,19.69
2022-08-31T12:13:50.183Z,19.72
2022-08-31T12:14:50.203Z,19.70
2022-08-31T12:15:50.210Z,19.65
2022-08-31T12:16:50.150Z,19.63
2022-08-31T12:17:50.140Z,19.72
2022-08-31T12:18:50.125Z,19.68
2022-08-31T12:19:50.117Z,19.69
2022-08-31T12:20:50.105Z,19.68
2022-08-31T12:21:50.095Z,19.73
2022-08-31T12:22:50.084Z,19.70
2022-08-31T12:23:50.071Z,19.72
2022-08-31T12:24:50.062Z,19.66
2022-08-31T12:25:50.049Z,19.63
2022-08-31T12:26:50.037Z,19.65
2022-08-31T12:27:50.027Z,19.68
2022-08-31T12:28:50.018Z,19.65
2022-08-31T12:29:50.005Z,19.69
2022-08-31T12:30:50.134Z,19.73
2022-08-31T12:31:49.982Z,19.69
2022-08-31T12:32:49.972Z,19.69
2022-08-31T12:33:49.962Z,19.69
2022-08-31T12:34:49.949Z,19.68
2022-08-31T12:35:49.939Z,19.69
2022-08-31T12:36:49.928Z,19.73
2022-08-31T12:37:49.919Z,19.75
2022-08-31T12:38:49.906Z,19.68
2022-08-31T12:39:49.899Z,19.61
2022-08-31T12:40:49.955Z,19.68
2022-08-31T12:41:49.874Z,19.72
2022-08-31T12:42:49.876Z,19.63
2022-08-31T12:43:49.850Z,19.61
2022-08-31T12:44:49.839Z,19.57
2022-08-31T12:45:49.891Z,19.63
2022-08-31T12:46:49.901Z,19.63
2022-08-31T12:47:49.807Z,19.60
2022-08-31T12:48:49.796Z,19.63
2022-08-31T12:49:49.784Z,19.70
2022-08-31T12:50:49.782Z,19.61
2022-08-31T12:51:49.768Z,19.63
2022-08-31T12:52:49.754Z,19.63